Main page
METAR-TAF:

METAR-TAF

Airports :

Strasbourg Airport

Strasbourg, France

latitude: 48-33N, longitude: 007-38E, elevation: 153 m

Current weather observation

The report was made 26 minutes ago, at 14:30 UTC
Wind 8 kt from the North, varying between West/Northwest and North/Northeast
Temperature 19°C
Humidity 46%
Pressure 1026 hPa
Visibility 10 km or more
Broken clouds at a height of 5400 ft
Overcast at a height of 7000 ft

METAR: LFST 221430Z AUTO 35008KT 300V020 9999 BKN054 OVC070 19/07 Q1026 NOSIG

Time: 16:56 (14:56 UTC)

Forecast

The report was made 3 hours and 56 minutes ago, at 11:00 UTC
Forecast valid from 22 at 12 UTC to 23 at 12 UTC
Wind 8 kt from the North/Northwest
Visibility 10 km or more
Scattered clouds at a height of 5000 ft
Temporary
from 22 at 12 UTC to 22 at 18 UTC
Wind 12 kt from the North/Northwest with gusts up to 22 kt

TAF: LFST 221100Z 2212/2312 34008KT 9999 SCT050 TEMPO 2212/2218 33012G22KT

Weather observations and forecasts of more than 4000 airports (METAR and TAF reports).

The available stations are represented by yellow and red dots on the map.

Hover mouse over dot to see the name of the station.

Then click to see weather observations and forecasts.

To change the map : click on the green buttons with a black cross to zoom in, on the green button with a dash to zoom out, or on the green arrows for adjacent maps.


METAR-TAF: